Time;durP1;ratioP1;P1;durP2;ratioP2;P2;SDS_P1;SDS_P2;PMS_P1;PMS_P2;Temp;Humidity;BMP_temperature;BMP_pressure;BME280_temperature;BME280_humidity;BME280_pressure;Samples;Min_cycle;Max_cycle;Signal;HPM_P1;HPM_P2
2022/11/30 00:01:27;;;;;;;4.10;2.17;;;;;;;5.90;61.68;95106.09;4982658;28;20122;-83
2022/11/30 00:03:53;;;;;;;3.90;2.28;;;;;;;5.92;61.45;95098.34;4950433;28;20042;-82
2022/11/30 00:06:21;;;;;;;13.68;5.85;;;;;;;5.95;61.48;95102.19;4951498;28;20066;-83
2022/11/30 00:08:48;;;;;;;8.57;4.15;;;;;;;5.89;61.96;95103.78;4981561;28;20074;-83
2022/11/30 00:11:16;;;;;;;4.95;2.40;;;;;;;5.86;61.93;95089.00;4950774;28;20053;-83
2022/11/30 00:13:42;;;;;;;3.63;2.30;;;;;;;5.91;62.13;95101.41;4965737;28;20082;-85
2022/11/30 00:16:07;;;;;;;2.90;1.73;;;;;;;5.94;61.89;95109.63;4950979;28;20027;-85
2022/11/30 00:18:34;;;;;;;3.78;2.00;;;;;;;5.94;61.99;95104.16;4966379;28;20524;-85
2022/11/30 00:21:01;;;;;;;3.00;1.60;;;;;;;5.91;62.07;95101.41;4966391;28;20034;-85
2022/11/30 00:23:31;;;;;;;4.22;1.50;;;;;;;5.93;61.90;95110.78;4966525;28;20062;-85
2022/11/30 00:26:02;;;;;;;3.13;1.80;;;;;;;5.95;61.95;95113.13;4965599;28;20489;-85
2022/11/30 00:28:28;;;;;;;2.97;1.85;;;;;;;5.93;61.90;95110.03;4950907;28;20041;-85
2022/11/30 00:31:01;;;;;;;2.22;1.10;;;;;;;5.85;62.03;95107.31;4949482;28;20031;-84
2022/11/30 00:33:27;;;;;;;2.35;0.88;;;;;;;5.84;61.93;95108.47;4982808;28;20501;-85
2022/11/30 00:36:03;;;;;;;0.93;0.82;;;;;;;5.79;61.82;95116.31;4949763;28;20126;-84
2022/11/30 00:38:30;;;;;;;0.70;0.50;;;;;;;5.82;61.64;95115.53;4982555;28;20027;-83
2022/11/30 00:40:55;;;;;;;1.92;0.90;;;;;;;5.75;61.86;95119.09;4950249;28;20043;-84
2022/11/30 00:43:21;;;;;;;1.65;0.90;;;;;;;5.75;62.07;95112.88;4966822;28;20102;-82
2022/11/30 00:45:46;;;;;;;1.98;1.27;;;;;;;5.77;62.25;95107.78;4966763;28;20117;-83
2022/11/30 00:48:12;;;;;;;2.03;1.17;;;;;;;5.76;62.56;95107.00;4980882;28;20042;-83
2022/11/30 00:50:37;;;;;;;2.08;0.90;;;;;;;5.75;62.52;95110.13;4988103;28;20393;-82
2022/11/30 00:53:03;;;;;;;1.55;0.98;;;;;;;5.76;62.52;95106.22;4969345;28;20037;-83
2022/11/30 00:55:30;;;;;;;1.50;0.80;;;;;;;5.74;62.70;95100.41;4986794;28;20038;-84
2022/11/30 00:57:55;;;;;;;1.05;0.70;;;;;;;5.70;62.70;95099.66;4954238;28;20495;-84
2022/11/30 01:00:21;;;;;;;2.33;0.80;;;;;;;5.71;62.53;95101.97;4985584;28;20037;-84
2022/11/30 01:02:46;;;;;;;1.77;1.00;;;;;;;5.67;62.41;95101.22;5002798;28;20444;-85
2022/11/30 01:05:12;;;;;;;1.27;0.70;;;;;;;5.63;62.82;95096.97;5001612;28;20405;-84
2022/11/30 01:07:37;;;;;;;0.77;0.65;;;;;;;5.69;62.88;95104.34;4987494;28;20035;-84
2022/11/30 01:10:03;;;;;;;1.20;0.80;;;;;;;5.60;63.07;95088.41;4985875;28;20023;-83
2022/11/30 01:12:28;;;;;;;1.58;0.85;;;;;;;5.69;62.89;95098.88;4954124;28;20046;-84
2022/11/30 01:14:54;;;;;;;2.03;1.13;;;;;;;5.72;62.89;95097.28;4972602;28;20037;-84
2022/11/30 01:17:19;;;;;;;1.50;0.85;;;;;;;5.75;63.08;95099.22;4973283;28;20093;-84
2022/11/30 01:19:44;;;;;;;1.70;0.90;;;;;;;5.76;62.84;95101.53;5005772;28;20030;-83
2022/11/30 01:22:10;;;;;;;1.90;0.93;;;;;;;5.70;62.63;95089.50;4972349;28;20085;-85
2022/11/30 01:24:35;;;;;;;1.88;0.80;;;;;;;5.73;62.74;95096.09;4994575;28;20066;-84
2022/11/30 01:27:01;;;;;;;2.67;0.80;;;;;;;5.70;62.74;95092.25;4997467;28;20026;-84
2022/11/30 01:29:26;;;;;;;0.57;0.52;;;;;;;5.72;63.01;95089.09;4999938;28;20029;-83
2022/11/30 01:31:51;;;;;;;1.45;0.90;;;;;;;5.72;62.85;95086.38;4956894;28;20050;-84
2022/11/30 01:34:17;;;;;;;1.80;0.90;;;;;;;5.69;63.05;95087.97;4976937;28;20102;-83
2022/11/30 01:36:43;;;;;;;1.75;0.88;;;;;;;5.70;62.93;95075.88;5013835;28;20038;-84
2022/11/30 01:39:08;;;;;;;1.20;0.90;;;;;;;5.77;63.25;95083.22;5000651;28;20112;-85
2022/11/30 01:41:34;;;;;;;1.92;1.10;;;;;;;5.72;62.65;95080.91;4973576;28;20461;-84
2022/11/30 01:44:06;;;;;;;1.10;0.80;;;;;;;5.71;63.12;95082.09;4989313;28;20114;-85
2022/11/30 01:46:40;;;;;;;1.05;0.80;;;;;;;5.64;63.36;95082.94;4989376;28;20035;-84
2022/11/30 01:49:14;;;;;;;1.85;0.68;;;;;;;5.68;63.31;95078.22;4987714;28;20054;-83
2022/11/30 01:51:43;;;;;;;2.17;0.70;;;;;;;5.71;62.83;95076.66;4989708;28;20030;-85
2022/11/30 01:54:10;;;;;;;0.93;0.80;;;;;;;5.60;63.08;95074.78;4999985;28;20034;-85
2022/11/30 01:56:37;;;;;;;1.02;0.80;;;;;;;5.52;63.42;95067.06;4991110;28;20030;-86
2022/11/30 01:59:02;;;;;;;0.93;0.60;;;;;;;5.48;63.57;95069.78;4973420;28;20026;-86
2022/11/30 02:01:28;;;;;;;0.98;0.73;;;;;;;5.43;63.86;95059.31;4988398;28;20410;-86
2022/11/30 02:04:12;;;;;;;1.10;0.80;;;;;;;5.36;64.08;95056.63;4989569;28;20026;-86
2022/11/30 02:06:38;;;;;;;2.28;1.08;;;;;;;5.29;64.17;95054.75;4972227;28;20042;-86
2022/11/30 02:09:03;;;;;;;2.03;1.27;;;;;;;5.25;64.51;95045.03;4988471;28;20134;-84
2022/11/30 02:11:28;;;;;;;2.92;2.08;;;;;;;5.22;65.06;95046.63;4989837;28;20026;-85
2022/11/30 02:14:14;;;;;;;3.35;2.40;;;;;;;5.04;65.37;95037.75;4988363;28;20035;-84
2022/11/30 02:16:48;;;;;;;5.35;2.45;;;;;;;4.85;66.40;95046.44;4990125;28;20026;-84
2022/11/30 02:19:13;;;;;;;6.55;3.35;;;;;;;4.84;66.27;95042.94;4955029;28;20026;-84
2022/11/30 02:21:46;;;;;;;4.28;3.20;;;;;;;4.72;66.71;95035.22;4990066;28;20121;-83
2022/11/30 02:24:25;;;;;;;5.38;2.58;;;;;;;4.66;67.40;95034.09;4970985;28;20030;-83
2022/11/30 02:26:54;;;;;;;3.33;2.83;;;;;;;4.68;67.20;95039.91;4972705;28;20034;-84
2022/11/30 02:29:23;;;;;;;2.55;1.80;;;;;;;4.57;67.89;95039.16;4972130;28;20053;-82
2022/11/30 02:31:58;;;;;;;4.35;2.13;;;;;;;4.35;68.46;95035.75;4971282;28;20033;-83
2022/11/30 02:34:24;;;;;;;3.05;2.58;;;;;;;4.36;68.95;95045.44;4989821;28;20101;-83
2022/11/30 02:36:50;;;;;;;2.42;1.48;;;;;;;4.34;68.90;95048.56;4987382;28;20026;-83
2022/11/30 02:39:16;;;;;;;1.85;1.40;;;;;;;4.33;68.90;95046.25;4988041;28;20037;-83
2022/11/30 02:41:41;;;;;;;2.88;1.20;;;;;;;4.25;68.94;95051.72;4971231;28;20031;-82
2022/11/30 02:44:08;;;;;;;2.10;1.10;;;;;;;4.31;68.92;95045.88;4988847;28;20046;-83
2022/11/30 02:46:57;;;;;;;1.05;0.80;;;;;;;4.29;68.72;95045.47;4971784;28;20385;-83
2022/11/30 02:50:04;;;;;;;1.30;0.88;;;;;;;4.40;68.65;95047.00;4961003;28;20046;-83
2022/11/30 02:52:29;;;;;;;1.00;0.70;;;;;;;4.47;68.46;95052.44;4964057;28;20050;-83
2022/11/30 02:54:59;;;;;;;1.05;0.80;;;;;;;4.49;67.65;95052.81;4967741;28;20031;-82
2022/11/30 02:57:25;;;;;;;1.00;0.77;;;;;;;4.52;67.92;95045.78;4951552;28;20030;-84
2022/11/30 02:59:50;;;;;;;1.13;0.70;;;;;;;4.57;67.92;95055.50;4979545;28;20437;-83
2022/11/30 03:02:16;;;;;;;1.50;0.90;;;;;;;4.65;67.86;95057.03;4985317;28;20082;-83
2022/11/30 03:04:41;;;;;;;2.35;1.00;;;;;;;4.72;67.70;95055.06;4952940;28;20037;-84
2022/11/30 03:07:07;;;;;;;2.13;1.00;;;;;;;4.79;67.28;95062.41;4951996;28;20019;-82
2022/11/30 03:09:32;;;;;;;1.27;0.80;;;;;;;4.79;67.34;95067.88;4952404;28;20023;-83
2022/11/30 03:11:57;;;;;;;2.67;0.95;;;;;;;4.85;67.37;95070.94;4983968;28;20065;-82
2022/11/30 03:14:23;;;;;;;1.70;0.90;;;;;;;4.87;67.30;95060.44;4952094;28;20023;-82
2022/11/30 03:16:48;;;;;;;1.85;0.80;;;;;;;4.92;67.35;95063.50;4952122;28;20027;-81
2022/11/30 03:19:14;;;;;;;1.65;0.93;;;;;;;4.99;67.05;95065.44;4967340;28;20031;-81
2022/11/30 03:21:39;;;;;;;2.17;1.20;;;;;;;5.01;67.33;95058.41;4969378;28;20027;-82
2022/11/30 03:24:05;;;;;;;3.45;1.30;;;;;;;5.02;67.17;95057.22;4967077;28;20038;-83
2022/11/30 03:26:31;;;;;;;1.58;1.00;;;;;;;5.01;67.31;95058.41;4967725;28;20084;-83
2022/11/30 03:28:56;;;;;;;2.10;1.80;;;;;;;5.11;67.54;95061.50;4967052;28;20046;-83
2022/11/30 03:31:21;;;;;;;3.08;1.60;;;;;;;5.06;67.71;95060.72;4968641;28;20034;-83
2022/11/30 03:33:47;;;;;;;3.15;2.08;;;;;;;5.07;68.26;95054.09;4968639;28;20038;-83
2022/11/30 03:36:12;;;;;;;5.43;2.53;;;;;;;5.03;68.62;95053.34;4982311;28;20038;-83
2022/11/30 03:38:38;;;;;;;5.25;3.60;;;;;;;5.07;68.63;95058.78;4951519;28;20030;-83
2022/11/30 03:41:09;;;;;;;6.53;4.50;;;;;;;5.06;69.09;95059.94;4982987;28;20031;-82
2022/11/30 03:43:34;;;;;;;9.05;6.57;;;;;;;5.11;69.39;95064.22;4983721;28;20030;-83
2022/11/30 03:46:00;;;;;;;10.70;6.68;;;;;;;5.14;69.33;95066.91;4966624;28;20050;-82
2022/11/30 03:48:25;;;;;;;10.02;7.63;;;;;;;5.14;69.27;95066.91;4967135;28;20110;-83
2022/11/30 03:50:51;;;;;;;9.65;6.75;;;;;;;5.17;69.29;95062.63;4950515;28;20034;-83
2022/11/30 03:53:17;;;;;;;8.40;6.13;;;;;;;5.13;69.51;95062.63;4967020;28;20027;-82
2022/11/30 03:55:42;;;;;;;8.50;6.75;;;;;;;5.18;69.50;95062.22;4968002;28;20026;-82
2022/11/30 03:58:08;;;;;;;7.40;5.75;;;;;;;5.19;69.42;95061.03;4966470;28;20019;-82
2022/11/30 04:00:33;;;;;;;8.05;6.28;;;;;;;5.26;69.40;95060.97;4982775;28;20136;-81
2022/11/30 04:02:59;;;;;;;6.72;4.95;;;;;;;5.26;69.45;95063.72;4966522;28;20038;-82
2022/11/30 04:05:24;;;;;;;6.93;5.50;;;;;;;5.27;69.37;95059.03;4980001;28;20027;-82
2022/11/30 04:07:49;;;;;;;5.80;4.43;;;;;;;5.29;69.51;95064.88;4968081;28;20474;-83
2022/11/30 04:10:15;;;;;;;5.40;4.68;;;;;;;5.20;69.22;95054.41;4984259;28;20500;-83
2022/11/30 04:12:40;;;;;;;4.93;4.05;;;;;;;5.25;69.38;95062.16;4993800;28;20023;-83
2022/11/30 04:15:06;;;;;;;5.78;3.80;;;;;;;5.19;69.39;95076.63;4992296;28;20025;-84
2022/11/30 04:17:32;;;;;;;6.50;4.00;;;;;;;5.23;69.24;95064.53;4975416;28;20035;-83
2022/11/30 04:19:57;;;;;;;4.32;3.80;;;;;;;5.30;69.13;95066.41;4953479;28;20030;-82
2022/11/30 04:22:22;;;;;;;5.63;4.30;;;;;;;5.26;69.29;95068.38;4983766;28;20045;-81
2022/11/30 04:24:48;;;;;;;5.78;4.28;;;;;;;5.22;69.33;95075.81;4982117;28;20027;-81
2022/11/30 04:27:13;;;;;;;5.93;4.28;;;;;;;5.26;69.04;95069.16;4951021;28;20035;-83
2022/11/30 04:29:39;;;;;;;5.30;3.80;;;;;;;5.20;69.31;95073.47;4966162;28;20031;-83
2022/11/30 04:32:05;;;;;;;4.78;3.85;;;;;;;5.23;69.31;95085.56;4966815;28;20066;-82
2022/11/30 04:34:31;;;;;;;4.63;4.13;;;;;;;5.19;69.48;95085.56;4967385;28;20026;-82
2022/11/30 04:36:56;;;;;;;5.93;4.40;;;;;;;5.11;69.87;95075.13;4950242;28;20030;-82
2022/11/30 04:39:22;;;;;;;7.13;4.70;;;;;;;5.16;69.51;95083.66;4982575;28;20026;-82
2022/11/30 04:41:47;;;;;;;4.38;3.97;;;;;;;5.16;69.50;95086.38;4949422;28;20030;-83
2022/11/30 04:44:12;;;;;;;4.20;3.80;;;;;;;5.29;69.06;95075.78;4967719;28;20035;-79
2022/11/30 04:46:38;;;;;;;5.00;3.80;;;;;;;5.22;69.34;95073.09;4949358;28;20027;-80
2022/11/30 04:49:03;;;;;;;5.45;3.88;;;;;;;5.26;69.27;95079.28;4974239;28;20050;-79
2022/11/30 04:51:29;;;;;;;5.70;3.67;;;;;;;5.25;69.13;95088.66;4969157;28;20074;-79
2022/11/30 04:53:54;;;;;;;6.03;3.70;;;;;;;5.29;68.96;95086.69;4985234;28;20030;-80
2022/11/30 04:56:20;;;;;;;4.43;3.30;;;;;;;5.23;68.88;95080.88;4969556;28;20022;-81
2022/11/30 04:58:46;;;;;;;4.63;2.72;;;;;;;5.25;68.91;95085.91;5001437;28;20481;-85
2022/11/30 05:01:11;;;;;;;5.20;2.90;;;;;;;5.22;69.15;95082.06;4969675;28;20031;-85
2022/11/30 05:03:37;;;;;;;4.72;2.90;;;;;;;5.23;68.84;95086.31;4968928;28;20144;-84
2022/11/30 05:06:02;;;;;;;6.70;3.42;;;;;;;5.07;69.19;95086.03;5002305;28;20027;-85
2022/11/30 05:08:28;;;;;;;3.85;2.75;;;;;;;5.03;69.43;95077.09;4985013;28;20042;-85
2022/11/30 05:10:53;;;;;;;4.40;2.80;;;;;;;5.01;69.48;95077.47;4979576;28;20034;-84
2022/11/30 05:13:20;;;;;;;3.10;2.70;;;;;;;5.05;69.17;95074.75;4972164;28;20030;-84
2022/11/30 05:15:45;;;;;;;3.45;2.70;;;;;;;4.99;69.34;95079.06;4985916;28;20113;-85
2022/11/30 05:18:11;;;;;;;4.22;2.58;;;;;;;5.06;69.19;95077.06;4985723;28;20035;-86
2022/11/30 05:20:37;;;;;;;5.68;3.03;;;;;;;5.14;68.85;95082.47;4952829;28;20033;-85
2022/11/30 05:23:02;;;;;;;4.80;3.45;;;;;;;5.09;68.68;95088.34;4985944;28;20023;-85
2022/11/30 05:25:27;;;;;;;3.72;2.75;;;;;;;5.09;68.54;95099.25;4968876;28;20026;-83
2022/11/30 05:27:56;;;;;;;2.75;2.03;;;;;;;5.13;68.28;95100.00;4969138;28;20032;-80
2022/11/30 05:30:21;;;;;;;4.18;2.40;;;;;;;5.02;68.58;95098.09;5000993;28;20529;-80
2022/11/30 05:32:47;;;;;;;6.88;2.67;;;;;;;5.01;69.00;95091.09;4969322;28;20034;-84
2022/11/30 05:35:12;;;;;;;5.15;3.10;;;;;;;5.04;69.06;95097.69;5001389;28;20041;-83
2022/11/30 05:37:37;;;;;;;4.70;3.22;;;;;;;5.09;68.71;95097.28;5001583;28;20026;-85
2022/11/30 05:40:03;;;;;;;4.75;3.20;;;;;;;4.94;69.33;95088.44;5000642;28;20043;-82
2022/11/30 05:42:29;;;;;;;4.88;3.50;;;;;;;5.01;69.15;95095.78;4984807;28;20060;-84
2022/11/30 05:44:54;;;;;;;4.38;3.38;;;;;;;5.02;69.25;95100.06;4952689;28;20034;-83
2022/11/30 05:47:20;;;;;;;4.78;3.60;;;;;;;5.06;69.08;95100.81;4984780;28;20023;-84
2022/11/30 05:49:45;;;;;;;4.55;3.75;;;;;;;5.08;68.96;95106.66;4968686;28;20046;-84
2022/11/30 05:52:11;;;;;;;5.70;3.20;;;;;;;5.10;68.99;95106.25;4984677;28;20037;-85
2022/11/30 05:54:37;;;;;;;4.43;3.33;;;;;;;5.11;69.02;95105.88;4968915;28;20034;-85
2022/11/30 05:57:04;;;;;;;5.20;3.22;;;;;;;5.14;68.87;95105.06;4984791;28;20026;-84
2022/11/30 05:59:29;;;;;;;3.70;3.00;;;;;;;5.23;68.43;95112.81;4986793;28;20070;-79
2022/11/30 06:01:55;;;;;;;5.38;3.10;;;;;;;5.28;68.47;95115.91;4971900;28;20412;-79
2022/11/30 06:04:21;;;;;;;4.75;3.35;;;;;;;5.26;67.84;95120.19;5004131;28;20031;-79
2022/11/30 06:06:48;;;;;;;4.63;3.40;;;;;;;5.22;68.05;95128.38;4972253;28;20042;-84
2022/11/30 06:09:13;;;;;;;6.97;3.22;;;;;;;5.26;68.01;95122.91;4989265;28;20031;-84
2022/11/30 06:11:39;;;;;;;8.35;3.85;;;;;;;5.32;67.89;95134.94;4988335;28;20026;-84
2022/11/30 06:14:04;;;;;;;6.38;4.03;;;;;;;5.33;68.03;95123.66;4987961;28;20382;-83
2022/11/30 06:16:29;;;;;;;7.63;4.25;;;;;;;5.37;67.90;95120.13;4982323;28;20353;-82
2022/11/30 06:18:55;;;;;;;9.85;4.28;;;;;;;5.33;67.76;95126.38;4974312;28;20085;-83
2022/11/30 06:21:20;;;;;;;7.82;4.50;;;;;;;5.39;67.52;95134.91;5005453;28;20089;-83
2022/11/30 06:23:46;;;;;;;6.22;4.03;;;;;;;5.45;67.41;95135.25;4990382;28;20026;-84
2022/11/30 06:26:11;;;;;;;7.05;4.30;;;;;;;5.40;67.55;95135.69;4989610;28;20399;-84
2022/11/30 06:28:37;;;;;;;6.65;4.57;;;;;;;5.50;67.42;95134.84;4989447;28;20065;-84
2022/11/30 06:31:04;;;;;;;6.13;4.38;;;;;;;5.47;67.19;95128.25;5004295;28;20412;-84
2022/11/30 06:33:29;;;;;;;6.18;4.60;;;;;;;5.57;66.88;95130.13;4972518;28;20072;-84
2022/11/30 06:35:55;;;;;;;6.03;4.47;;;;;;;5.62;66.78;95126.22;5004506;28;20026;-84
2022/11/30 06:38:20;;;;;;;9.10;6.00;;;;;;;5.65;66.81;95130.06;4971794;28;20117;-77
2022/11/30 06:40:46;;;;;;;11.68;6.78;;;;;;;5.71;66.77;95131.19;4991271;28;20034;-83
2022/11/30 06:43:11;;;;;;;11.30;7.38;;;;;;;5.73;66.54;95135.06;4988459;28;20022;-83
2022/11/30 06:45:37;;;;;;;9.20;6.43;;;;;;;5.78;66.63;95142.06;5008312;28;20412;-83
2022/11/30 06:48:03;;;;;;;10.63;6.93;;;;;;;5.77;66.46;95140.50;4971589;28;20057;-83
2022/11/30 06:50:28;;;;;;;9.70;6.25;;;;;;;5.81;66.55;95149.44;4970733;28;20046;-81
2022/11/30 06:52:55;;;;;;;9.60;5.68;;;;;;;5.84;66.33;95149.41;4987199;28;20057;-83
2022/11/30 06:55:21;;;;;;;10.57;5.97;;;;;;;5.83;66.42;95144.34;5003855;28;20105;-83
2022/11/30 06:57:47;;;;;;;7.93;4.32;;;;;;;5.86;66.13;95143.56;4987724;28;20076;-84
2022/11/30 07:00:13;;;;;;;6.30;3.95;;;;;;;5.85;66.10;95131.13;4986844;28;20029;-81
2022/11/30 07:02:38;;;;;;;5.88;3.80;;;;;;;5.90;65.41;95130.66;4971370;28;20041;-83
2022/11/30 07:05:04;;;;;;;5.72;3.33;;;;;;;5.88;65.34;95137.72;4988206;28;20030;-82
2022/11/30 07:07:30;;;;;;;5.55;3.47;;;;;;;5.85;64.71;95133.84;4972444;28;20033;-83
2022/11/30 07:09:56;;;;;;;6.10;3.85;;;;;;;5.91;64.67;95139.63;4970983;28;20034;-83
2022/11/30 07:12:21;;;;;;;5.43;3.25;;;;;;;5.74;64.06;95135.88;4970915;28;20034;-83
2022/11/30 07:14:51;;;;;;;8.00;4.18;;;;;;;5.62;64.66;95139.03;4954730;28;20031;-83
2022/11/30 07:17:16;;;;;;;5.55;3.78;;;;;;;5.57;65.15;95141.03;5002472;28;20040;-84
2022/11/30 07:19:42;;;;;;;5.75;3.65;;;;;;;5.65;64.43;95152.66;4987300;28;20034;-84
2022/11/30 07:22:07;;;;;;;7.20;4.75;;;;;;;5.65;64.77;95149.16;4977916;28;20030;-84
2022/11/30 07:27:17;;;;;;;6.70;4.25;;;;;;;5.63;64.90;95146.84;4987112;28;20539;-84
2022/11/30 07:29:42;;;;;;;7.57;4.45;;;;;;;5.68;65.02;95142.91;4988695;28;20022;-82
2022/11/30 07:32:07;;;;;;;7.20;4.25;;;;;;;5.69;64.64;95153.44;4970770;28;20022;-83
2022/11/30 07:34:33;;;;;;;7.18;4.65;;;;;;;5.69;65.11;95150.69;4970868;28;20030;-83
2022/11/30 07:36:58;;;;;;;7.30;4.25;;;;;;;5.70;65.07;95154.97;4988729;28;20378;-84
2022/11/30 07:39:24;;;;;;;10.07;4.90;;;;;;;5.62;65.29;95141.78;4986252;28;20512;-84
2022/11/30 07:41:49;;;;;;;7.63;5.63;;;;;;;5.65;65.16;95147.22;4986955;28;20413;-84
2022/11/30 07:44:15;;;;;;;10.43;5.40;;;;;;;5.72;65.06;95141.69;4985855;28;20480;-84
2022/11/30 07:46:40;;;;;;;9.98;5.35;;;;;;;5.75;64.65;95142.88;4988093;28;20084;-84
2022/11/30 07:49:07;;;;;;;6.63;4.63;;;;;;;5.79;64.68;95132.69;4979947;28;20053;-84
2022/11/30 07:51:32;;;;;;;8.80;4.75;;;;;;;5.88;63.99;95134.97;4968254;28;20039;-84
2022/11/30 07:53:58;;;;;;;7.35;4.75;;;;;;;5.90;64.29;95141.56;4951249;28;20050;-84
2022/11/30 07:56:23;;;;;;;9.00;5.00;;;;;;;5.85;64.45;95139.28;4966154;28;20031;-82
2022/11/30 07:58:50;;;;;;;7.03;4.72;;;;;;;5.97;64.11;95141.56;4967412;28;20033;-82
2022/11/30 08:01:17;;;;;;;6.35;4.05;;;;;;;5.92;64.04;95136.53;4966324;28;20027;-83
2022/11/30 08:03:43;;;;;;;6.95;4.50;;;;;;;6.03;64.03;95144.66;4967165;28;20030;-82
2022/11/30 08:06:10;;;;;;;7.40;4.25;;;;;;;6.09;63.74;95141.06;4982561;28;20030;-83
2022/11/30 08:08:37;;;;;;;12.32;5.93;;;;;;;6.14;63.64;95145.34;4967404;28;20027;-82
2022/11/30 08:11:03;;;;;;;8.70;4.82;;;;;;;6.17;63.50;95141.78;4950506;28;20038;-83
2022/11/30 08:13:28;;;;;;;10.70;4.65;;;;;;;6.28;63.12;95147.16;4950223;28;20484;-83
2022/11/30 08:15:54;;;;;;;10.43;6.22;;;;;;;6.29;63.32;95152.19;4966764;28;20034;-83
2022/11/30 08:18:20;;;;;;;16.02;9.10;;;;;;;6.35;63.12;95158.78;4982127;28;20496;-83
2022/11/30 08:20:45;;;;;;;11.38;6.43;;;;;;;6.32;63.14;95147.91;4967859;28;20019;-83
2022/11/30 08:23:11;;;;;;;10.65;5.70;;;;;;;6.37;63.45;95158.41;4981719;28;20038;-82
2022/11/30 08:25:36;;;;;;;8.32;5.00;;;;;;;6.42;63.11;95157.16;4966403;28;20031;-83
2022/11/30 08:28:03;;;;;;;7.07;4.88;;;;;;;6.42;63.11;95154.44;4973627;28;20018;-84
2022/11/30 08:30:29;;;;;;;7.68;5.10;;;;;;;6.46;63.02;95153.22;4951969;28;20426;-83
2022/11/30 08:32:55;;;;;;;8.30;4.80;;;;;;;6.43;63.07;95145.09;4967233;28;20046;-82
2022/11/30 08:35:21;;;;;;;8.25;5.10;;;;;;;6.51;63.11;95152.78;4949987;28;20061;-84
2022/11/30 08:37:47;;;;;;;6.07;4.13;;;;;;;6.54;62.84;95148.50;4950736;28;20485;-83
2022/11/30 08:40:12;;;;;;;8.85;4.60;;;;;;;6.59;62.25;95154.25;4965967;28;20053;-84
2022/11/30 08:42:38;;;;;;;7.20;4.85;;;;;;;6.60;62.40;95150.38;4950028;28;20038;-83
2022/11/30 08:45:04;;;;;;;7.57;4.75;;;;;;;6.61;62.40;95151.13;4967127;28;20034;-84
2022/11/30 08:47:29;;;;;;;9.25;5.05;;;;;;;6.54;62.53;95137.56;4950009;28;20109;-84
2022/11/30 08:49:56;;;;;;;8.85;5.18;;;;;;;6.60;62.44;95146.88;4996837;28;20208;-82
2022/11/30 08:52:21;;;;;;;7.82;4.50;;;;;;;6.63;62.68;95143.31;4968913;28;20022;-83
2022/11/30 08:54:47;;;;;;;8.50;5.22;;;;;;;6.65;62.84;95144.47;4985909;28;20029;-84
2022/11/30 08:57:16;;;;;;;6.78;5.30;;;;;;;6.67;63.34;95144.06;4952730;28;20168;-83
2022/11/30 08:59:42;;;;;;;9.52;5.07;;;;;;;6.69;63.15;95143.63;4985350;28;20026;-84
2022/11/30 09:02:12;;;;;;;8.40;4.32;;;;;;;6.73;63.00;95144.38;4968998;28;20034;-84
2022/11/30 09:04:38;;;;;;;7.80;4.55;;;;;;;6.73;62.82;95153.34;5001848;28;20036;-84
2022/11/30 09:07:04;;;;;;;6.70;5.03;;;;;;;6.77;62.69;95145.91;4966357;28;20118;-84
2022/11/30 09:09:29;;;;;;;7.82;5.28;;;;;;;6.83;62.24;95152.47;4952472;28;20026;-84
2022/11/30 09:11:54;;;;;;;9.18;5.63;;;;;;;6.81;62.10;95148.56;4987248;28;20120;-83
2022/11/30 09:14:20;;;;;;;8.05;5.70;;;;;;;6.82;62.00;95152.84;5010426;28;20022;-84
2022/11/30 09:16:45;;;;;;;10.88;6.57;;;;;;;6.86;61.99;95154.38;5017608;28;20031;-83
2022/11/30 09:19:11;;;;;;;11.23;6.20;;;;;;;6.87;61.46;95155.16;5002226;28;20034;-83
2022/11/30 09:21:36;;;;;;;10.23;5.70;;;;;;;6.83;60.65;95149.72;5001798;28;20034;-83
2022/11/30 09:24:02;;;;;;;10.05;5.88;;;;;;;6.82;59.87;95156.34;4984879;28;20030;-83
2022/11/30 09:26:27;;;;;;;9.32;4.70;;;;;;;6.89;59.62;95148.09;4985288;28;20513;-83
2022/11/30 09:28:53;;;;;;;10.20;4.82;;;;;;;6.86;58.89;95154.38;4969288;28;20029;-83
2022/11/30 09:31:19;;;;;;;8.05;4.55;;;;;;;6.89;58.21;95161.00;4969072;28;20046;-84
2022/11/30 09:33:45;;;;;;;12.82;5.80;;;;;;;6.85;57.84;95177.41;4977935;28;20088;-83
2022/11/30 09:36:12;;;;;;;9.27;4.60;;;;;;;6.77;57.89;95170.50;4975097;28;20026;-84
2022/11/30 09:38:37;;;;;;;6.30;4.50;;;;;;;6.82;57.71;95172.75;4973400;28;20037;-83
2022/11/30 09:41:10;;;;;;;6.10;4.10;;;;;;;6.80;57.46;95177.09;4989003;28;20026;-84
2022/11/30 09:43:44;;;;;;;28.23;11.90;;;;;;;6.86;56.68;95180.94;4972939;28;20042;-84
2022/11/30 09:46:10;;;;;;;18.42;7.63;;;;;;;6.85;56.69;95179.38;4990885;28;20038;-83
2022/11/30 09:48:50;;;;;;;9.70;5.22;;;;;;;6.89;56.60;95174.66;4988225;28;20046;-83
2022/11/30 09:51:18;;;;;;;9.18;4.60;;;;;;;6.83;56.63;95170.81;4973152;28;20037;-84
2022/11/30 09:53:46;;;;;;;9.55;4.47;;;;;;;6.84;56.10;95170.41;4956195;28;20400;-83
2022/11/30 09:56:23;;;;;;;7.10;4.28;;;;;;;6.91;55.82;95173.06;4989640;28;20026;-83
2022/11/30 09:59:14;;;;;;;11.75;6.15;;;;;;;6.96;55.96;95162.88;4988948;28;20058;-83
2022/11/30 10:01:40;;;;;;;7.25;3.50;;;;;;;6.97;56.12;95156.22;4972028;28;20062;-83
2022/11/30 10:04:16;;;;;;;5.80;3.13;;;;;;;7.00;55.78;95158.16;4988806;28;20121;-83
2022/11/30 10:07:07;;;;;;;5.25;2.45;;;;;;;6.98;55.76;95157.75;4971797;28;20563;-82
2022/11/30 10:09:32;;;;;;;6.88;3.03;;;;;;;6.96;55.95;95147.25;4990134;28;20511;-84
2022/11/30 10:12:08;;;;;;;13.38;4.82;;;;;;;6.91;56.14;95143.00;4971744;28;20030;-83
2022/11/30 10:14:45;;;;;;;16.73;6.82;;;;;;;6.96;56.63;95139.03;4956088;28;20030;-84
2022/11/30 10:17:26;;;;;;;6.40;3.28;;;;;;;6.95;56.45;95134.00;4972195;28;20030;-84
2022/11/30 10:20:02;;;;;;;5.75;2.90;;;;;;;7.03;56.22;95129.97;4989213;28;20484;-83
2022/11/30 10:22:44;;;;;;;8.00;3.80;;;;;;;7.04;56.11;95126.06;4989368;28;20026;-84
2022/11/30 10:25:21;;;;;;;5.18;2.97;;;;;;;7.06;56.24;95126.44;4989619;28;20041;-84
2022/11/30 10:27:53;;;;;;;7.07;4.20;;;;;;;7.09;56.16;95125.59;4971846;28;20019;-83
2022/11/30 10:30:22;;;;;;;5.35;2.75;;;;;;;7.12;56.01;95127.53;4972016;28;20036;-83
2022/11/30 10:32:53;;;;;;;5.15;3.10;;;;;;;7.11;56.71;95124.03;4971023;28;20030;-84
2022/11/30 10:35:28;;;;;;;4.47;3.03;;;;;;;7.10;56.39;95119.72;4971964;28;20026;-85
2022/11/30 10:37:54;;;;;;;4.85;3.08;;;;;;;7.12;56.59;95122.84;4971535;28;20030;-84
2022/11/30 10:40:27;;;;;;;6.07;3.17;;;;;;;7.14;56.69;95112.25;4997921;28;20045;-82
2022/11/30 10:43:17;;;;;;;6.72;2.70;;;;;;;7.18;57.07;95114.97;4972777;28;20042;-84
2022/11/30 10:45:46;;;;;;;3.53;2.70;;;;;;;7.21;56.87;95108.66;4971333;28;20604;-83
2022/11/30 10:48:39;;;;;;;9.65;3.47;;;;;;;7.21;56.98;95114.13;4970858;28;20046;-82
2022/11/30 10:51:04;;;;;;;6.05;4.25;;;;;;;7.21;56.86;95118.81;4936099;28;20158;-84
2022/11/30 10:53:31;;;;;;;6.68;4.13;;;;;;;7.26;57.38;95119.13;4984225;28;20033;-83
2022/11/30 10:56:09;;;;;;;9.35;4.45;;;;;;;7.32;57.35;95114.00;4952116;28;20031;-82
2022/11/30 10:58:39;;;;;;;8.35;4.90;;;;;;;7.31;57.22;95109.72;4983783;28;20126;-82
2022/11/30 11:01:10;;;;;;;10.75;5.60;;;;;;;7.31;57.02;95104.25;4968107;28;20039;-83
2022/11/30 11:03:35;;;;;;;11.00;6.53;;;;;;;7.30;56.77;95108.16;4951341;28;20078;-82
2022/11/30 11:06:03;;;;;;;9.00;5.30;;;;;;;7.28;56.24;95103.09;4920401;28;20511;-84
2022/11/30 11:08:28;;;;;;;6.70;4.18;;;;;;;7.27;56.27;95101.53;4969512;28;20027;-84
2022/11/30 11:10:54;;;;;;;19.25;8.82;;;;;;;7.28;56.25;95091.38;4969039;28;20086;-82
2022/11/30 11:13:37;;;;;;;14.63;6.00;;;;;;;7.25;56.15;95092.97;4952008;28;20508;-83
2022/11/30 11:16:04;;;;;;;6.15;3.88;;;;;;;7.24;56.04;95080.50;4967394;28;20041;-83
2022/11/30 11:18:30;;;;;;;9.77;4.70;;;;;;;7.28;55.99;95085.91;4967698;28;20038;-84
2022/11/30 11:21:04;;;;;;;8.57;4.05;;;;;;;7.28;56.54;95083.94;4983206;28;20027;-84
2022/11/30 11:23:38;;;;;;;4.50;3.30;;;;;;;7.23;56.37;95081.69;4935607;28;20050;-84
2022/11/30 11:26:04;;;;;;;5.80;2.42;;;;;;;7.24;56.57;95077.00;4967633;28;20150;-84
2022/11/30 11:28:30;;;;;;;3.55;2.00;;;;;;;7.21;56.42;95080.53;4967188;28;20026;-83
2022/11/30 11:30:55;;;;;;;3.40;2.20;;;;;;;7.18;56.64;95091.13;4983694;28;20090;-83
2022/11/30 11:33:28;;;;;;;3.05;2.22;;;;;;;7.21;56.56;95088.75;4966823;28;20039;-83
2022/11/30 11:35:53;;;;;;;4.63;2.47;;;;;;;7.21;56.83;95091.47;4951204;28;20019;-83
2022/11/30 11:38:27;;;;;;;6.68;3.70;;;;;;;7.23;57.05;95089.91;4982849;28;20031;-83
2022/11/30 11:41:04;;;;;;;6.75;3.50;;;;;;;7.21;56.58;95073.13;4967269;28;20174;-83
2022/11/30 11:43:31;;;;;;;6.75;3.85;;;;;;;7.33;56.49;95088.97;4951094;28;20043;-84
2022/11/30 11:46:00;;;;;;;5.13;3.00;;;;;;;7.34;56.55;95090.53;4992869;28;20049;-82